Barbers Point N A S, Hawaii
Current Conditions -  °F | °C
As of 6:53 PM on Tuesday 25 Nov 2014 (Local Time) from PHJR Reporting Station
Clear Clear  
Wind Chill: 71°   Ceiling: Unl
Heat Index: 71°   Visibility: 10mi
Dew Point: 59°   Wind: 6mph
Humidity: 66%   Direction: NA
Pressure: 30.05"   Gusts: NA
Location:  21.319°N, 158.0749°W
Report Text: PHJR 260453Z VRB05KT 10SM CLR 22/15 A3005 RMK AO2 SLP181 T02170150
Loading
Personal Weather Stations






























Interactive Weather Map New forecast layout! Learn more

10-Day Weather Forecast

Advertisements
Track Severe Weather on mobile